Time;durP1;ratioP1;P1;durP2;ratioP2;P2;SDS_P1;SDS_P2;PMS_P1;PMS_P2;Temp;Humidity;BMP_temperature;BMP_pressure;BME280_temperature;BME280_humidity;BME280_pressure;Samples;Min_cycle;Max_cycle;Signal;HPM_P1;HPM_P2
2023/05/26 00:01:14;;;;;;;;;;;7.80;91.90;;;;;;5031001;28;20364;-83
2023/05/26 00:03:44;;;;;;;;;;;7.80;92.00;;;;;;5025375;28;20086;-81
2023/05/26 00:06:12;;;;;;;;;;;7.70;92.10;;;;;;4994316;28;20220;-81
2023/05/26 00:08:38;;;;;;;;;;;7.70;92.00;;;;;;5028109;28;19929;-81
2023/05/26 00:11:06;;;;;;;;;;;7.70;92.00;;;;;;5030177;28;20679;-81
2023/05/26 00:13:32;;;;;;;;;;;7.60;92.10;;;;;;5014919;28;20455;-83
2023/05/26 00:16:00;;;;;;;;;;;7.60;92.20;;;;;;5014923;28;19956;-84
2023/05/26 00:18:27;;;;;;;;;;;7.60;92.60;;;;;;5012498;28;19925;-83
2023/05/26 00:20:53;;;;;;;;;;;7.60;93.00;;;;;;5019559;28;20346;-83
2023/05/26 00:23:20;;;;;;;;;;;7.50;93.10;;;;;;5026610;28;19936;-83
2023/05/26 00:25:50;;;;;;;;;;;7.50;93.00;;;;;;5031642;28;20416;-82
2023/05/26 00:28:17;;;;;;;;;;;7.50;93.00;;;;;;5025366;28;19932;-83
2023/05/26 00:30:44;;;;;;;;;;;7.50;92.80;;;;;;5014288;28;20043;-83
2023/05/26 00:33:11;;;;;;;;;;;7.40;92.70;;;;;;5024712;28;20003;-83
2023/05/26 00:35:38;;;;;;;;;;;7.40;93.40;;;;;;5020207;28;20028;-83
2023/05/26 00:38:06;;;;;;;;;;;7.40;93.30;;;;;;5023329;28;19952;-83
2023/05/26 00:40:32;;;;;;;;;;;7.40;93.20;;;;;;5038925;28;19991;-83
2023/05/26 00:42:59;;;;;;;;;;;7.40;91.90;;;;;;5003134;28;19929;-83
2023/05/26 00:45:26;;;;;;;;;;;7.30;91.70;;;;;;4998648;28;19988;-83
2023/05/26 00:47:53;;;;;;;;;;;7.20;92.50;;;;;;4997554;28;19968;-83
2023/05/26 00:50:20;;;;;;;;;;;7.20;93.40;;;;;;5021401;28;19925;-83
2023/05/26 00:52:47;;;;;;;;;;;7.20;93.30;;;;;;5022224;28;20341;-83
2023/05/26 00:55:14;;;;;;;;;;;7.20;93.50;;;;;;5011104;28;20548;-83
2023/05/26 00:57:41;;;;;;;;;;;7.20;93.70;;;;;;5033255;28;19929;-83
2023/05/26 01:00:09;;;;;;;;;;;7.20;93.20;;;;;;5033778;28;20030;-83
2023/05/26 01:02:39;;;;;;;;;;;7.20;93.50;;;;;;5001783;28;20008;-83
2023/05/26 01:05:08;;;;;;;;;;;7.10;93.80;;;;;;5023222;28;19979;-83
2023/05/26 01:07:36;;;;;;;;;;;7.10;94.30;;;;;;5029262;28;19968;-83
2023/05/26 01:10:03;;;;;;;;;;;7.10;94.50;;;;;;5017081;28;19971;-83
2023/05/26 01:12:43;;;;;;;;;;;7.10;94.90;;;;;;5029338;28;20166;-83
2023/05/26 01:15:15;;;;;;;;;;;7.10;94.90;;;;;;5010923;28;20024;-83
2023/05/26 01:17:46;;;;;;;;;;;7.20;94.20;;;;;;5032393;23;20022;-83
2023/05/26 01:20:17;;;;;;;;;;;7.10;93.60;;;;;;5019832;28;19937;-83
2023/05/26 01:22:50;;;;;;;;;;;7.10;93.50;;;;;;5018375;28;21555;-83
2023/05/26 01:25:21;;;;;;;;;;;7.00;93.20;;;;;;5029766;28;20016;-83
2023/05/26 01:27:54;;;;;;;;;;;7.00;93.50;;;;;;5010061;28;20365;-83
2023/05/26 01:30:20;;;;;;;;;;;7.00;94.60;;;;;;5023091;28;19968;-83
2023/05/26 01:32:48;;;;;;;;;;;7.00;94.70;;;;;;5011174;28;19931;-83
2023/05/26 01:35:15;;;;;;;;;;;7.00;94.80;;;;;;5034534;28;20421;-83
2023/05/26 01:37:42;;;;;;;;;;;7.00;94.70;;;;;;5010978;28;20576;-83
2023/05/26 01:40:10;;;;;;;;;;;7.00;94.50;;;;;;5002261;28;20028;-83
2023/05/26 01:42:40;;;;;;;;;;;7.00;93.80;;;;;;5023729;28;20016;-83
2023/05/26 01:45:06;;;;;;;;;;;7.00;93.70;;;;;;5010178;28;19959;-82
2023/05/26 01:47:34;;;;;;;;;;;6.90;93.60;;;;;;5012877;28;20013;-82
2023/05/26 01:50:02;;;;;;;;;;;6.90;94.00;;;;;;5010299;28;19976;-83
2023/05/26 01:52:31;;;;;;;;;;;6.90;94.10;;;;;;5001906;28;19932;-83
2023/05/26 01:55:01;;;;;;;;;;;6.90;94.50;;;;;;5024200;28;19926;-82
2023/05/26 01:57:28;;;;;;;;;;;6.90;94.50;;;;;;5021226;28;20474;-82
2023/05/26 01:59:55;;;;;;;;;;;6.80;94.30;;;;;;5028719;28;20391;-82
2023/05/26 02:02:22;;;;;;;;;;;6.80;94.40;;;;;;5022733;28;19929;-83
2023/05/26 02:04:48;;;;;;;;;;;6.80;94.60;;;;;;5002255;28;19926;-82
2023/05/26 02:07:15;;;;;;;;;;;6.80;94.60;;;;;;5024887;28;20443;-82
2023/05/26 02:09:42;;;;;;;;;;;6.80;94.80;;;;;;5028855;28;19980;-83
2023/05/26 02:12:09;;;;;;;;;;;6.80;94.70;;;;;;5016998;28;19977;-83
2023/05/26 02:14:35;;;;;;;;;;;6.80;94.50;;;;;;5004933;28;19933;-82
2023/05/26 02:17:03;;;;;;;;;;;6.70;94.80;;;;;;5011482;28;20007;-82
2023/05/26 02:19:30;;;;;;;;;;;6.80;94.70;;;;;;5014486;28;20640;-81
2023/05/26 02:21:57;;;;;;;;;;;6.80;95.00;;;;;;5005341;28;19925;-83
2023/05/26 02:24:24;;;;;;;;;;;6.80;94.80;;;;;;5022403;28;19972;-83
2023/05/26 02:26:51;;;;;;;;;;;6.70;94.80;;;;;;4997251;28;19925;-83
2023/05/26 02:29:17;;;;;;;;;;;6.70;95.10;;;;;;5005990;28;20394;-83
2023/05/26 02:31:44;;;;;;;;;;;6.70;95.30;;;;;;5030285;28;19926;-83
2023/05/26 02:34:11;;;;;;;;;;;6.70;95.20;;;;;;5030878;28;19932;-84
2023/05/26 02:36:38;;;;;;;;;;;6.60;95.30;;;;;;5028945;28;20629;-83
2023/05/26 02:39:05;;;;;;;;;;;6.60;95.00;;;;;;5027142;28;20055;-83
2023/05/26 02:41:31;;;;;;;;;;;6.60;95.20;;;;;;5006871;28;20337;-83
2023/05/26 02:43:58;;;;;;;;;;;6.60;95.70;;;;;;5020894;28;19929;-82
2023/05/26 02:46:25;;;;;;;;;;;6.60;95.90;;;;;;5016038;28;20590;-83
2023/05/26 02:48:52;;;;;;;;;;;6.60;95.30;;;;;;5007715;28;20362;-83
2023/05/26 02:51:18;;;;;;;;;;;6.60;95.20;;;;;;5004476;28;20262;-83
2023/05/26 02:53:46;;;;;;;;;;;6.60;95.20;;;;;;5026444;28;20019;-83
2023/05/26 02:56:13;;;;;;;;;;;6.60;95.10;;;;;;5023749;28;19932;-82
2023/05/26 02:58:40;;;;;;;;;;;6.60;95.10;;;;;;5010687;28;19929;-83
2023/05/26 03:01:06;;;;;;;;;;;6.60;95.10;;;;;;5031724;28;20431;-82
2023/05/26 03:03:34;;;;;;;;;;;6.60;94.90;;;;;;5010413;28;20007;-82
2023/05/26 03:06:02;;;;;;;;;;;6.60;94.60;;;;;;5024119;28;19929;-83
2023/05/26 03:08:29;;;;;;;;;;;6.60;94.60;;;;;;5010540;28;19935;-82
2023/05/26 03:10:56;;;;;;;;;;;6.60;94.80;;;;;;5003022;28;20079;-83
2023/05/26 03:13:37;;;;;;;;;;;6.60;94.30;;;;;;4996906;28;19948;-82
2023/05/26 03:16:04;;;;;;;;;;;6.60;94.90;;;;;;5013210;28;20358;-82
2023/05/26 03:18:32;;;;;;;;;;;6.60;95.00;;;;;;5035108;28;19924;-83
2023/05/26 03:20:59;;;;;;;;;;;6.60;94.70;;;;;;5004017;28;20370;-82
2023/05/26 03:23:25;;;;;;;;;;;6.60;94.50;;;;;;5025322;28;19941;-82
2023/05/26 03:25:52;;;;;;;;;;;6.60;94.50;;;;;;5025836;28;19976;-83
2023/05/26 03:28:19;;;;;;;;;;;6.60;94.40;;;;;;5012787;28;19929;-83
2023/05/26 03:30:45;;;;;;;;;;;6.60;94.60;;;;;;4999576;28;19939;-82
2023/05/26 03:33:12;;;;;;;;;;;6.60;94.40;;;;;;4997094;28;19936;-83
2023/05/26 03:35:39;;;;;;;;;;;6.60;94.30;;;;;;5029387;28;19932;-83
2023/05/26 03:38:05;;;;;;;;;;;6.60;94.40;;;;;;5020621;28;19929;-82
2023/05/26 03:40:32;;;;;;;;;;;6.60;94.30;;;;;;5006728;28;20015;-82
2023/05/26 03:43:01;;;;;;;;;;;6.60;94.40;;;;;;5023824;28;19980;-83
2023/05/26 03:45:28;;;;;;;;;;;6.60;94.30;;;;;;5010822;28;20277;-83
2023/05/26 03:47:54;;;;;;;;;;;6.60;94.50;;;;;;5015493;28;19933;-82
2023/05/26 03:50:21;;;;;;;;;;;6.60;94.40;;;;;;5026728;28;20540;-83
2023/05/26 03:52:48;;;;;;;;;;;6.70;94.20;;;;;;5023060;28;19925;-83
2023/05/26 03:55:17;;;;;;;;;;;6.70;94.20;;;;;;5028078;28;20364;-82
2023/05/26 03:57:44;;;;;;;;;;;6.70;94.40;;;;;;5000799;28;20282;-82
2023/05/26 04:00:13;;;;;;;;;;;6.70;93.90;;;;;;5034069;28;20895;-81
2023/05/26 04:02:41;;;;;;;;;;;6.80;94.10;;;;;;5034665;28;20492;-81
2023/05/26 04:05:08;;;;;;;;;;;6.80;93.90;;;;;;5024013;28;19979;-82
2023/05/26 04:07:35;;;;;;;;;;;6.90;93.60;;;;;;5014644;28;19933;-81
2023/05/26 04:10:02;;;;;;;;;;;6.90;93.50;;;;;;5014430;28;19928;-81
2023/05/26 04:12:28;;;;;;;;;;;6.90;93.60;;;;;;5017485;28;19925;-81
2023/05/26 04:14:55;;;;;;;;;;;7.00;93.30;;;;;;5006894;28;20023;-81
2023/05/26 04:17:22;;;;;;;;;;;7.00;93.20;;;;;;5025581;28;19987;-79
2023/05/26 04:19:49;;;;;;;;;;;7.00;93.50;;;;;;5032255;28;19929;-79
2023/05/26 04:22:15;;;;;;;;;;;7.10;93.80;;;;;;5004009;28;20343;-81
2023/05/26 04:24:42;;;;;;;;;;;7.10;92.80;;;;;;5030709;28;19976;-80
2023/05/26 04:27:09;;;;;;;;;;;7.20;91.90;;;;;;5012373;28;20388;-82
2023/05/26 04:29:36;;;;;;;;;;;7.20;91.80;;;;;;5049992;28;19940;-82
2023/05/26 04:32:03;;;;;;;;;;;7.30;91.90;;;;;;5023189;28;19925;-86
2023/05/26 04:34:30;;;;;;;;;;;7.30;92.00;;;;;;5019497;28;20293;-86
2023/05/26 04:37:03;;;;;;;;;;;7.30;91.80;;;;;;5024777;28;20389;-85
2023/05/26 04:39:31;;;;;;;;;;;7.40;92.00;;;;;;5032991;28;19937;-82
2023/05/26 04:41:58;;;;;;;;;;;7.50;90.80;;;;;;5032410;28;20020;-83
2023/05/26 04:44:25;;;;;;;;;;;7.50;90.60;;;;;;5031988;28;19956;-84
2023/05/26 04:46:53;;;;;;;;;;;7.60;91.20;;;;;;5037830;28;19947;-83
2023/05/26 04:49:22;;;;;;;;;;;7.70;90.30;;;;;;5004789;28;19937;-85
2023/05/26 04:51:59;;;;;;;;;;;7.80;90.40;;;;;;5032785;28;19979;-81
2023/05/26 04:54:26;;;;;;;;;;;7.90;90.50;;;;;;5008599;28;19995;-80
2023/05/26 04:56:55;;;;;;;;;;;7.90;89.80;;;;;;5035366;28;19925;-82
2023/05/26 04:59:22;;;;;;;;;;;8.00;89.70;;;;;;5009781;28;19937;-82
2023/05/26 05:01:49;;;;;;;;;;;8.10;89.80;;;;;;5038659;28;20019;-79
2023/05/26 05:04:17;;;;;;;;;;;8.20;89.20;;;;;;5022704;28;19978;-82
2023/05/26 05:06:44;;;;;;;;;;;8.30;88.40;;;;;;5028845;28;20416;-82
2023/05/26 05:09:10;;;;;;;;;;;8.40;88.10;;;;;;5022960;28;20447;-83
2023/05/26 05:11:37;;;;;;;;;;;8.40;87.80;;;;;;5012623;28;19931;-81
2023/05/26 05:14:04;;;;;;;;;;;8.60;88.40;;;;;;5021616;28;19926;-84
2023/05/26 05:19:53;;;;;;;;;;;8.80;87.70;;;;;;5046033;23;19967;-76
2023/05/26 05:22:39;;;;;;;;;;;8.90;87.00;;;;;;5031865;23;19933;-74
2023/05/26 05:25:06;;;;;;;;;;;9.10;86.90;;;;;;5025652;28;20429;-73
2023/05/26 05:27:33;;;;;;;;;;;9.20;86.60;;;;;;5050692;28;20019;-76
2023/05/26 05:30:00;;;;;;;;;;;9.30;85.90;;;;;;5042401;28;19935;-75
2023/05/26 05:32:26;;;;;;;;;;;9.40;85.80;;;;;;5022535;28;20040;-75
2023/05/26 05:34:55;;;;;;;;;;;9.50;84.50;;;;;;5028419;28;19936;-75
2023/05/26 05:37:21;;;;;;;;;;;9.50;84.20;;;;;;5017604;28;19936;-75
2023/05/26 05:39:48;;;;;;;;;;;9.60;83.00;;;;;;5035505;28;19936;-76
2023/05/26 05:42:15;;;;;;;;;;;9.60;83.10;;;;;;5026587;28;19928;-75
2023/05/26 05:44:41;;;;;;;;;;;9.70;83.00;;;;;;5030904;28;19933;-76
2023/05/26 05:47:08;;;;;;;;;;;9.60;81.60;;;;;;5034504;28;19933;-75
2023/05/26 05:49:35;;;;;;;;;;;9.60;82.20;;;;;;5038639;28;19929;-72
2023/05/26 05:52:02;;;;;;;;;;;9.70;82.40;;;;;;5031153;28;19929;-72
2023/05/26 05:54:29;;;;;;;;;;;9.80;81.80;;;;;;5022109;28;19933;-74
2023/05/26 05:56:55;;;;;;;;;;;9.90;82.10;;;;;;5046774;28;19929;-74
2023/05/26 05:59:22;;;;;;;;;;;10.00;81.60;;;;;;5035546;28;19976;-74
2023/05/26 06:01:49;;;;;;;;;;;10.10;80.70;;;;;;5041469;28;19934;-75
2023/05/26 06:04:16;;;;;;;;;;;10.20;79.40;;;;;;5036633;28;20003;-73
2023/05/26 06:06:43;;;;;;;;;;;10.30;79.40;;;;;;5041468;28;19929;-76
2023/05/26 06:09:10;;;;;;;;;;;10.40;79.40;;;;;;5025040;28;20035;-75
2023/05/26 06:11:37;;;;;;;;;;;10.60;79.90;;;;;;5016015;28;19928;-74
2023/05/26 06:14:04;;;;;;;;;;;10.60;78.30;;;;;;5034448;28;19975;-73
2023/05/26 06:16:30;;;;;;;;;;;10.60;77.50;;;;;;5033970;28;19951;-73
2023/05/26 06:18:57;;;;;;;;;;;10.60;77.30;;;;;;5030699;28;19929;-73
2023/05/26 06:21:24;;;;;;;;;;;10.70;76.10;;;;;;5020471;28;20059;-74
2023/05/26 06:23:52;;;;;;;;;;;10.80;76.70;;;;;;5038290;28;20335;-74
2023/05/26 06:26:20;;;;;;;;;;;10.90;76.10;;;;;;5043544;28;20019;-74
2023/05/26 06:28:47;;;;;;;;;;;10.90;74.60;;;;;;5043055;28;19929;-74
2023/05/26 06:31:15;;;;;;;;;;;10.70;74.30;;;;;;5031420;28;19967;-73
2023/05/26 06:33:41;;;;;;;;;;;10.70;74.30;;;;;;5017744;28;20554;-74
2023/05/26 06:36:09;;;;;;;;;;;10.80;73.80;;;;;;5038834;28;19955;-74
2023/05/26 06:38:36;;;;;;;;;;;11.00;73.90;;;;;;5031850;28;20439;-74
2023/05/26 06:41:03;;;;;;;;;;;11.50;73.40;;;;;;5016483;28;20016;-74
2023/05/26 06:43:30;;;;;;;;;;;11.90;71.10;;;;;;5019237;28;20022;-74
2023/05/26 06:45:56;;;;;;;;;;;12.50;70.60;;;;;;5024216;28;20429;-74
2023/05/26 06:48:23;;;;;;;;;;;12.90;68.30;;;;;;5015826;28;19928;-74
2023/05/26 06:50:52;;;;;;;;;;;13.30;67.90;;;;;;5041831;28;19929;-74
2023/05/26 06:53:19;;;;;;;;;;;13.50;65.80;;;;;;5031634;28;20031;-74
2023/05/26 06:55:46;;;;;;;;;;;13.70;64.30;;;;;;5036969;28;19964;-74
2023/05/26 06:58:12;;;;;;;;;;;13.10;63.40;;;;;;5025954;28;19940;-73
2023/05/26 07:00:54;;;;;;;;;;;12.60;65.60;;;;;;5013202;28;19939;-74
2023/05/26 07:03:21;;;;;;;;;;;12.50;65.70;;;;;;5036525;28;19929;-74
2023/05/26 07:05:48;;;;;;;;;;;12.40;65.50;;;;;;5020439;28;20700;-74
2023/05/26 07:08:23;;;;;;;;;;;12.30;66.30;;;;;;5012307;28;20564;-74
2023/05/26 07:10:50;;;;;;;;;;;12.30;66.60;;;;;;5040025;28;19929;-74
2023/05/26 07:13:17;;;;;;;;;;;12.30;67.60;;;;;;5037065;28;19986;-75
2023/05/26 07:15:44;;;;;;;;;;;12.80;68.30;;;;;;5019911;28;20007;-74
2023/05/26 07:18:11;;;;;;;;;;;13.50;66.90;;;;;;5037339;28;19928;-74
2023/05/26 07:20:38;;;;;;;;;;;13.90;64.20;;;;;;5031129;28;19951;-75
2023/05/26 07:23:05;;;;;;;;;;;13.60;62.70;;;;;;5049385;28;19975;-75
2023/05/26 07:25:31;;;;;;;;;;;13.60;62.60;;;;;;5044790;28;20034;-74
2023/05/26 07:27:58;;;;;;;;;;;13.50;62.00;;;;;;5041173;28;20028;-75
2023/05/26 07:30:25;;;;;;;;;;;13.10;62.40;;;;;;5041148;28;20660;-75
2023/05/26 07:32:52;;;;;;;;;;;13.00;65.00;;;;;;5026975;28;20019;-75
2023/05/26 07:35:18;;;;;;;;;;;13.30;64.20;;;;;;5052432;28;19939;-76
2023/05/26 07:37:46;;;;;;;;;;;13.80;64.10;;;;;;5042823;28;19984;-75
2023/05/26 07:40:13;;;;;;;;;;;14.30;61.90;;;;;;5031652;28;20028;-75
2023/05/26 07:42:39;;;;;;;;;;;15.00;59.00;;;;;;5033244;28;20003;-75
2023/05/26 07:45:06;;;;;;;;;;;15.40;57.50;;;;;;5025707;28;20357;-75
2023/05/26 07:47:34;;;;;;;;;;;15.60;58.60;;;;;;5041474;28;19929;-76
2023/05/26 07:50:00;;;;;;;;;;;16.10;58.40;;;;;;5024428;28;19929;-74
2023/05/26 07:52:28;;;;;;;;;;;16.30;56.20;;;;;;5046372;28;19932;-74
2023/05/26 07:54:55;;;;;;;;;;;16.70;57.50;;;;;;5027765;28;20048;-74
2023/05/26 07:57:23;;;;;;;;;;;16.90;55.50;;;;;;5043979;28;19928;-75
2023/05/26 07:59:55;;;;;;;;;;;16.90;54.70;;;;;;5036200;28;19929;-74
2023/05/26 08:02:22;;;;;;;;;;;17.10;52.90;;;;;;5043087;28;20377;-74
2023/05/26 08:04:49;;;;;;;;;;;16.70;53.30;;;;;;5022558;28;20023;-74
2023/05/26 08:07:16;;;;;;;;;;;16.90;55.20;;;;;;5029685;28;19972;-74
2023/05/26 08:09:45;;;;;;;;;;;17.30;53.60;;;;;;5018571;28;20408;-74
2023/05/26 08:12:12;;;;;;;;;;;17.10;51.90;;;;;;5025523;28;20292;-75
2023/05/26 08:14:39;;;;;;;;;;;16.70;53.70;;;;;;5040539;28;19964;-76
2023/05/26 08:17:06;;;;;;;;;;;17.30;54.20;;;;;;5024233;28;20011;-75
2023/05/26 08:19:33;;;;;;;;;;;17.60;53.60;;;;;;5038482;28;19995;-75
2023/05/26 08:21:59;;;;;;;;;;;17.50;51.80;;;;;;5024426;28;20041;-75
2023/05/26 08:24:26;;;;;;;;;;;17.20;52.80;;;;;;5039656;28;19986;-75
2023/05/26 08:26:53;;;;;;;;;;;16.90;55.30;;;;;;5022408;28;20532;-75
2023/05/26 08:29:22;;;;;;;;;;;16.90;52.80;;;;;;5027881;28;20842;-76
2023/05/26 08:31:49;;;;;;;;;;;16.60;51.90;;;;;;5033782;28;19933;-75
2023/05/26 08:34:17;;;;;;;;;;;16.30;53.90;;;;;;5048060;28;20440;-76
2023/05/26 08:36:43;;;;;;;;;;;16.20;55.50;;;;;;5036157;28;20009;-76
2023/05/26 08:39:10;;;;;;;;;;;16.40;55.50;;;;;;5038273;28;20686;-75
2023/05/26 08:41:43;;;;;;;;;;;16.90;53.90;;;;;;5048489;28;19929;-75
2023/05/26 08:44:11;;;;;;;;;;;17.20;55.00;;;;;;5047458;28;19932;-75
2023/05/26 08:46:38;;;;;;;;;;;17.30;54.30;;;;;;5026384;28;19947;-75
2023/05/26 08:49:05;;;;;;;;;;;17.70;52.70;;;;;;5039630;28;20047;-75
2023/05/26 08:51:35;;;;;;;;;;;17.10;53.40;;;;;;5041090;28;19933;-73
2023/05/26 08:54:03;;;;;;;;;;;17.30;53.10;;;;;;5033454;28;20052;-74
2023/05/26 08:56:31;;;;;;;;;;;17.00;52.90;;;;;;5056041;28;20619;-74
2023/05/26 08:59:00;;;;;;;;;;;17.00;53.20;;;;;;5024057;28;19999;-74
2023/05/26 09:01:27;;;;;;;;;;;17.30;51.90;;;;;;5042382;28;19929;-75
2023/05/26 09:03:54;;;;;;;;;;;17.20;53.70;;;;;;5024486;28;19928;-77
2023/05/26 09:06:21;;;;;;;;;;;17.60;52.30;;;;;;5024686;28;20408;-75
2023/05/26 09:08:48;;;;;;;;;;;18.20;51.50;;;;;;5022267;28;19929;-75
2023/05/26 09:11:22;;;;;;;;;;;18.30;51.30;;;;;;5022775;28;20451;-75
2023/05/26 09:13:52;;;;;;;;;;;18.20;51.00;;;;;;5053451;28;19932;-75
2023/05/26 09:16:20;;;;;;;;;;;18.30;50.70;;;;;;5024827;28;19928;-75
2023/05/26 09:18:47;;;;;;;;;;;18.90;49.70;;;;;;5033480;28;19928;-75
2023/05/26 09:21:15;;;;;;;;;;;18.80;50.60;;;;;;5032818;28;19960;-75
2023/05/26 09:23:44;;;;;;;;;;;19.30;47.20;;;;;;5028774;28;20421;-75
2023/05/26 09:26:15;;;;;;;;;;;18.90;47.90;;;;;;5026275;28;20395;-73
2023/05/26 09:28:48;;;;;;;;;;;18.70;49.10;;;;;;5046287;28;19928;-73
2023/05/26 09:31:15;;;;;;;;;;;19.00;49.50;;;;;;5044236;28;19932;-73
2023/05/26 09:33:46;;;;;;;;;;;19.10;47.50;;;;;;5028635;28;20017;-73
2023/05/26 09:36:16;;;;;;;;;;;19.30;47.90;;;;;;5024382;28;20460;-73
2023/05/26 09:38:43;;;;;;;;;;;19.10;48.00;;;;;;5025294;28;20436;-73
2023/05/26 09:41:10;;;;;;;;;;;19.20;48.10;;;;;;5020378;28;20435;-73
2023/05/26 09:43:36;;;;;;;;;;;19.60;47.70;;;;;;5040082;28;19958;-73
2023/05/26 09:46:10;;;;;;;;;;;19.90;47.50;;;;;;5049810;28;19928;-74
2023/05/26 09:48:36;;;;;;;;;;;20.00;45.20;;;;;;5042199;28;19936;-74
2023/05/26 09:51:04;;;;;;;;;;;19.30;47.00;;;;;;5052120;28;19983;-74
2023/05/26 09:53:30;;;;;;;;;;;19.40;47.90;;;;;;5022282;28;20018;-73
2023/05/26 09:56:00;;;;;;;;;;;20.10;46.30;;;;;;5037698;28;19982;-72
2023/05/26 09:58:28;;;;;;;;;;;20.30;46.30;;;;;;5032370;28;19928;-73
2023/05/26 10:00:55;;;;;;;;;;;20.10;45.80;;;;;;5041230;28;19933;-72
2023/05/26 10:03:22;;;;;;;;;;;20.30;46.00;;;;;;5023089;28;19928;-73
2023/05/26 10:05:49;;;;;;;;;;;20.10;46.50;;;;;;5017374;28;20436;-72
2023/05/26 10:08:18;;;;;;;;;;;20.40;44.70;;;;;;5017558;28;19933;-72
2023/05/26 10:10:46;;;;;;;;;;;20.80;45.20;;;;;;5018424;28;19937;-74
2023/05/26 10:13:13;;;;;;;;;;;20.60;45.00;;;;;;5016485;28;19929;-73
2023/05/26 10:15:40;;;;;;;;;;;20.80;44.80;;;;;;5050872;28;19939;-73
2023/05/26 10:18:07;;;;;;;;;;;20.80;45.60;;;;;;5045751;28;20386;-73
2023/05/26 10:20:35;;;;;;;;;;;21.10;44.90;;;;;;5048959;28;19928;-73
2023/05/26 10:23:04;;;;;;;;;;;21.00;44.00;;;;;;5050065;28;19929;-74
2023/05/26 10:25:31;;;;;;;;;;;21.30;44.00;;;;;;5044772;28;19928;-74
2023/05/26 10:28:19;;;;;;;;;;;20.50;45.60;;;;;;5022961;28;20517;-73
2023/05/26 10:30:46;;;;;;;;;;;20.50;44.90;;;;;;5041841;28;19932;-73
2023/05/26 10:33:14;;;;;;;;;;;20.20;45.70;;;;;;5025230;28;19980;-74
2023/05/26 10:35:57;;;;;;;;;;;19.90;45.90;;;;;;5030889;28;19932;-72
2023/05/26 10:38:29;;;;;;;;;;;20.20;46.70;;;;;;5038957;28;20006;-71
2023/05/26 10:40:56;;;;;;;;;;;20.90;45.00;;;;;;5022299;28;20007;-71
2023/05/26 10:43:24;;;;;;;;;;;20.80;45.40;;;;;;5021106;28;20072;-71
2023/05/26 10:45:52;;;;;;;;;;;21.30;43.40;;;;;;5037107;28;20339;-71
2023/05/26 10:48:19;;;;;;;;;;;21.40;44.50;;;;;;5029504;28;20401;-71
2023/05/26 10:50:58;;;;;;;;;;;21.30;46.30;;;;;;5050163;28;20533;-71
2023/05/26 10:53:25;;;;;;;;;;;21.80;43.90;;;;;;5033823;28;19929;-71
2023/05/26 10:55:54;;;;;;;;;;;21.00;43.50;;;;;;5038946;28;20036;-72
2023/05/26 10:58:27;;;;;;;;;;;20.80;44.60;;;;;;5039681;28;19983;-72
2023/05/26 11:01:03;;;;;;;;;;;20.40;47.20;;;;;;5033594;28;20369;-72
2023/05/26 11:03:44;;;;;;;;;;;20.50;46.30;;;;;;5033801;28;19939;-72
2023/05/26 11:06:14;;;;;;;;;;;19.80;45.60;;;;;;5041615;28;19936;-72
2023/05/26 11:08:45;;;;;;;;;;;19.20;46.60;;;;;;5023756;28;19929;-71
2023/05/26 11:11:13;;;;;;;;;;;19.20;45.70;;;;;;5057666;28;20327;-72
2023/05/26 11:13:42;;;;;;;;;;;19.20;47.20;;;;;;5039794;28;19935;-72
2023/05/26 11:16:11;;;;;;;;;;;19.40;47.90;;;;;;5040910;28;19971;-72
2023/05/26 11:18:39;;;;;;;;;;;19.30;47.90;;;;;;5046271;28;19928;-72
2023/05/26 11:21:06;;;;;;;;;;;19.30;49.40;;;;;;5047101;28;20389;-72
2023/05/26 11:23:35;;;;;;;;;;;19.00;47.90;;;;;;5037802;28;19929;-72
2023/05/26 11:26:09;;;;;;;;;;;18.30;48.40;;;;;;5034565;28;20381;-71
2023/05/26 11:28:39;;;;;;;;;;;17.90;49.90;;;;;;5026758;28;19936;-72
2023/05/26 11:31:13;;;;;;;;;;;17.70;50.90;;;;;;5040067;28;20319;-71
2023/05/26 11:33:40;;;;;;;;;;;18.10;50.10;;;;;;5042869;28;19980;-72
2023/05/26 11:36:08;;;;;;;;;;;18.00;51.00;;;;;;5044574;28;19928;-73
2023/05/26 11:38:36;;;;;;;;;;;18.40;50.00;;;;;;5036887;28;20021;-72
2023/05/26 11:41:04;;;;;;;;;;;18.00;50.20;;;;;;5022291;28;20526;-72
2023/05/26 11:43:31;;;;;;;;;;;18.10;50.80;;;;;;5023054;28;19994;-72
2023/05/26 11:46:00;;;;;;;;;;;18.20;50.80;;;;;;5021808;28;20278;-72
2023/05/26 11:48:30;;;;;;;;;;;18.20;49.30;;;;;;5017540;28;19980;-69
2023/05/26 11:50:57;;;;;;;;;;;17.90;52.10;;;;;;5036133;28;20830;-72
2023/05/26 11:53:27;;;;;;;;;;;18.10;50.00;;;;;;5048962;28;20052;-73
2023/05/26 11:56:04;;;;;;;;;;;17.90;51.10;;;;;;5021290;28;20289;-74
2023/05/26 11:58:33;;;;;;;;;;;18.30;51.00;;;;;;5035605;28;19933;-73
2023/05/26 12:01:01;;;;;;;;;;;18.30;49.70;;;;;;5030784;28;19928;-74
2023/05/26 12:03:28;;;;;;;;;;;18.30;49.70;;;;;;5022821;28;19936;-82
2023/05/26 12:06:05;;;;;;;;;;;18.20;49.60;;;;;;5027417;28;19939;-82
2023/05/26 12:08:42;;;;;;;;;;;18.00;50.70;;;;;;5036830;28;20113;-79
2023/05/26 12:11:13;;;;;;;;;;;18.40;50.60;;;;;;5033304;28;20399;-80
2023/05/26 12:13:39;;;;;;;;;;;18.50;49.50;;;;;;5038214;28;19928;-82
2023/05/26 12:16:23;;;;;;;;;;;17.90;49.30;;;;;;5032647;28;19929;-82
2023/05/26 12:18:50;;;;;;;;;;;17.90;50.20;;;;;;5053903;28;19967;-82
2023/05/26 12:21:17;;;;;;;;;;;18.00;51.30;;;;;;5044922;28;20035;-82
2023/05/26 12:23:45;;;;;;;;;;;18.40;49.50;;;;;;5045016;28;20426;-81
2023/05/26 12:26:19;;;;;;;;;;;19.00;50.60;;;;;;5053908;28;19928;-81
2023/05/26 12:28:46;;;;;;;;;;;19.40;48.40;;;;;;5033679;28;19964;-81
2023/05/26 12:31:17;;;;;;;;;;;18.80;48.50;;;;;;5037103;28;20078;-82
2023/05/26 12:33:44;;;;;;;;;;;18.80;48.70;;;;;;5035500;28;19982;-79
2023/05/26 12:36:11;;;;;;;;;;;18.90;50.50;;;;;;5027784;28;19982;-79
2023/05/26 12:38:41;;;;;;;;;;;19.30;47.90;;;;;;5030759;28;20023;-80
2023/05/26 12:41:08;;;;;;;;;;;19.00;46.40;;;;;;5031034;28;20300;-80
2023/05/26 12:43:34;;;;;;;;;;;19.00;49.20;;;;;;5031685;28;19935;-82
2023/05/26 12:46:02;;;;;;;;;;;19.30;47.60;;;;;;5045184;28;19935;-82
2023/05/26 12:48:29;;;;;;;;;;;19.20;49.70;;;;;;5045801;28;19933;-83
2023/05/26 12:50:56;;;;;;;;;;;19.60;47.90;;;;;;5041781;28;19936;-83
2023/05/26 12:53:24;;;;;;;;;;;19.40;48.00;;;;;;5040421;28;19928;-82
2023/05/26 12:55:52;;;;;;;;;;;19.40;47.10;;;;;;5036152;28;20455;-82
2023/05/26 12:58:20;;;;;;;;;;;19.30;49.20;;;;;;5045838;28;19928;-83
2023/05/26 13:00:47;;;;;;;;;;;19.40;47.30;;;;;;5042314;28;19936;-81
2023/05/26 13:03:14;;;;;;;;;;;19.30;47.50;;;;;;5034903;28;20506;-81
2023/05/26 13:05:41;;;;;;;;;;;19.30;47.40;;;;;;5025777;28;20351;-80
2023/05/26 13:08:08;;;;;;;;;;;19.30;47.90;;;;;;5033090;28;19929;-78
2023/05/26 13:10:35;;;;;;;;;;;19.00;49.20;;;;;;5050973;28;19979;-80
2023/05/26 13:13:02;;;;;;;;;;;19.40;48.50;;;;;;5056242;28;19967;-80
2023/05/26 13:15:29;;;;;;;;;;;19.90;47.00;;;;;;5049917;28;19936;-79
2023/05/26 13:17:56;;;;;;;;;;;20.30;47.30;;;;;;5034349;28;20004;-81
2023/05/26 13:20:26;;;;;;;;;;;20.10;47.10;;;;;;5023983;28;19945;-82
2023/05/26 13:22:53;;;;;;;;;;;20.00;46.50;;;;;;5046978;28;20196;-82
2023/05/26 13:25:20;;;;;;;;;;;20.00;47.30;;;;;;5023142;28;20011;-82
2023/05/26 13:27:48;;;;;;;;;;;20.30;46.40;;;;;;5038548;28;19968;-82
2023/05/26 13:30:15;;;;;;;;;;;20.10;44.90;;;;;;5024793;28;20393;-82
2023/05/26 13:32:42;;;;;;;;;;;20.00;46.80;;;;;;5028309;28;20093;-83
2023/05/26 13:35:09;;;;;;;;;;;19.80;46.80;;;;;;5018847;28;19929;-82
2023/05/26 13:37:35;;;;;;;;;;;19.90;45.00;;;;;;5043378;28;19929;-83
2023/05/26 13:40:02;;;;;;;;;;;19.90;44.90;;;;;;5045999;28;19960;-80
2023/05/26 13:42:34;;;;;;;;;;;19.50;46.00;;;;;;5041142;28;19929;-83
2023/05/26 13:45:02;;;;;;;;;;;19.50;45.60;;;;;;5043265;28;20431;-83
2023/05/26 13:47:30;;;;;;;;;;;19.40;47.40;;;;;;5033388;28;19968;-83
2023/05/26 13:49:57;;;;;;;;;;;19.90;47.40;;;;;;5040001;28;19941;-84
2023/05/26 13:52:42;;;;;;;;;;;20.00;45.90;;;;;;5044136;28;19929;-84
2023/05/26 13:55:08;;;;;;;;;;;20.00;45.80;;;;;;5039897;28;19929;-85
2023/05/26 13:57:36;;;;;;;;;;;20.00;47.30;;;;;;5024182;28;19933;-83
2023/05/26 14:00:03;;;;;;;;;;;19.90;46.90;;;;;;5030872;28;19951;-83
2023/05/26 14:02:30;;;;;;;;;;;20.30;47.40;;;;;;5044966;28;19929;-83
2023/05/26 14:04:57;;;;;;;;;;;20.20;46.90;;;;;;5043554;28;20407;-80
2023/05/26 14:07:27;;;;;;;;;;;20.10;46.40;;;;;;5050869;28;19936;-80
2023/05/26 14:09:54;;;;;;;;;;;20.50;48.30;;;;;;5033437;28;19929;-80
2023/05/26 14:12:20;;;;;;;;;;;20.70;45.20;;;;;;5032346;28;20396;-80
2023/05/26 14:14:47;;;;;;;;;;;20.60;44.90;;;;;;5044457;28;19955;-79
2023/05/26 14:17:14;;;;;;;;;;;20.50;45.10;;;;;;5044742;28;20464;-78
2023/05/26 14:19:41;;;;;;;;;;;20.30;46.50;;;;;;5039806;28;20300;-80
2023/05/26 14:22:12;;;;;;;;;;;20.20;45.80;;;;;;5024657;28;20553;-80
2023/05/26 14:24:47;;;;;;;;;;;20.20;45.80;;;;;;5041974;28;19929;-77
2023/05/26 14:27:14;;;;;;;;;;;20.30;45.80;;;;;;5024808;28;19933;-80
2023/05/26 14:29:41;;;;;;;;;;;20.10;45.50;;;;;;5040220;28;19935;-79